sensor_id;sensor_type;location;lat;lon;timestamp;P1;durP1;ratioP1;P2;durP2;ratioP2
63699;SDS011;49845;47.130;142.766;2022-12-07T00:02:24;12.75;;;4.10;;
63699;SDS011;49845;47.130;142.766;2022-12-07T00:05:01;6.68;;;3.33;;
63699;SDS011;49845;47.130;142.766;2022-12-07T00:07:56;7.90;;;3.53;;
63699;SDS011;49845;47.130;142.766;2022-12-07T00:10:45;8.52;;;3.78;;
63699;SDS011;49845;47.130;142.766;2022-12-07T00:13:38;8.85;;;3.08;;
63699;SDS011;49845;47.130;142.766;2022-12-07T00:16:33;7.82;;;3.22;;
63699;SDS011;49845;47.130;142.766;2022-12-07T00:19:21;7.95;;;4.03;;
63699;SDS011;49845;47.130;142.766;2022-12-07T00:22:11;7.38;;;3.22;;
63699;SDS011;49845;47.130;142.766;2022-12-07T00:25:09;9.55;;;3.70;;
63699;SDS011;49845;47.130;142.766;2022-12-07T00:27:55;8.48;;;3.45;;
63699;SDS011;49845;47.130;142.766;2022-12-07T00:31:08;8.70;;;4.00;;
63699;SDS011;49845;47.130;142.766;2022-12-07T00:34:16;7.68;;;3.20;;
63699;SDS011;49845;47.130;142.766;2022-12-07T00:37:09;7.95;;;3.80;;
63699;SDS011;49845;47.130;142.766;2022-12-07T00:39:50;6.55;;;3.30;;
63699;SDS011;49845;47.130;142.766;2022-12-07T00:42:42;6.35;;;3.58;;
63699;SDS011;49845;47.130;142.766;2022-12-07T00:45:23;10.63;;;2.92;;
63699;SDS011;49845;47.130;142.766;2022-12-07T00:48:10;9.23;;;4.28;;
63699;SDS011;49845;47.130;142.766;2022-12-07T00:50:57;8.15;;;3.40;;
63699;SDS011;49845;47.130;142.766;2022-12-07T00:53:43;7.60;;;3.60;;
63699;SDS011;49845;47.130;142.766;2022-12-07T00:56:28;8.82;;;4.03;;
63699;SDS011;49845;47.130;142.766;2022-12-07T00:59:05;11.70;;;4.57;;
63699;SDS011;49845;47.130;142.766;2022-12-07T01:01:53;14.18;;;4.85;;
63699;SDS011;49845;47.130;142.766;2022-12-07T01:04:41;11.25;;;4.45;;
63699;SDS011;49845;47.130;142.766;2022-12-07T01:07:42;11.48;;;4.50;;
63699;SDS011;49845;47.130;142.766;2022-12-07T01:10:34;11.45;;;4.70;;
63699;SDS011;49845;47.130;142.766;2022-12-07T01:13:21;16.73;;;5.68;;
63699;SDS011;49845;47.130;142.766;2022-12-07T01:16:03;6.20;;;3.53;;
63699;SDS011;49845;47.130;142.766;2022-12-07T01:18:58;10.55;;;3.65;;
63699;SDS011;49845;47.130;142.766;2022-12-07T01:21:44;8.20;;;4.45;;
63699;SDS011;49845;47.130;142.766;2022-12-07T01:24:35;10.45;;;4.03;;
63699;SDS011;49845;47.130;142.766;2022-12-07T01:27:16;8.50;;;3.33;;
63699;SDS011;49845;47.130;142.766;2022-12-07T01:29:54;9.95;;;3.33;;
63699;SDS011;49845;47.130;142.766;2022-12-07T01:32:39;9.15;;;3.55;;
63699;SDS011;49845;47.130;142.766;2022-12-07T01:35:27;7.78;;;4.30;;
63699;SDS011;49845;47.130;142.766;2022-12-07T01:41:17;11.38;;;5.25;;
63699;SDS011;49845;47.130;142.766;2022-12-07T01:44:17;14.02;;;5.10;;
63699;SDS011;49845;47.130;142.766;2022-12-07T01:47:15;13.27;;;6.07;;
63699;SDS011;49845;47.130;142.766;2022-12-07T01:49:52;14.43;;;6.70;;
63699;SDS011;49845;47.130;142.766;2022-12-07T01:52:48;13.98;;;5.60;;
63699;SDS011;49845;47.130;142.766;2022-12-07T01:55:43;10.25;;;5.25;;
63699;SDS011;49845;47.130;142.766;2022-12-07T01:58:38;13.82;;;6.65;;
63699;SDS011;49845;47.130;142.766;2022-12-07T02:01:22;11.32;;;5.05;;
63699;SDS011;49845;47.130;142.766;2022-12-07T02:04:08;16.63;;;7.65;;
63699;SDS011;49845;47.130;142.766;2022-12-07T02:06:57;19.85;;;6.70;;
63699;SDS011;49845;47.130;142.766;2022-12-07T02:09:43;22.27;;;7.82;;
63699;SDS011;49845;47.130;142.766;2022-12-07T02:12:20;11.95;;;5.47;;
63699;SDS011;49845;47.130;142.766;2022-12-07T02:15:04;10.20;;;4.97;;
63699;SDS011;49845;47.130;142.766;2022-12-07T02:17:49;10.57;;;4.65;;
63699;SDS011;49845;47.130;142.766;2022-12-07T02:20:39;10.80;;;5.68;;
63699;SDS011;49845;47.130;142.766;2022-12-07T02:27:25;11.52;;;4.60;;
63699;SDS011;49845;47.130;142.766;2022-12-07T02:30:31;9.23;;;4.50;;
63699;SDS011;49845;47.130;142.766;2022-12-07T02:33:18;10.55;;;5.03;;
63699;SDS011;49845;47.130;142.766;2022-12-07T02:36:12;9.23;;;4.30;;
63699;SDS011;49845;47.130;142.766;2022-12-07T02:38:54;10.38;;;4.40;;
63699;SDS011;49845;47.130;142.766;2022-12-07T02:41:33;10.38;;;4.22;;
63699;SDS011;49845;47.130;142.766;2022-12-07T02:44:39;11.88;;;4.95;;
63699;SDS011;49845;47.130;142.766;2022-12-07T02:47:27;8.95;;;4.70;;
63699;SDS011;49845;47.130;142.766;2022-12-07T02:50:44;11.60;;;4.85;;
63699;SDS011;49845;47.130;142.766;2022-12-07T02:53:32;12.60;;;4.97;;
63699;SDS011;49845;47.130;142.766;2022-12-07T02:56:17;11.48;;;5.05;;
63699;SDS011;49845;47.130;142.766;2022-12-07T02:59:12;8.05;;;4.47;;
63699;SDS011;49845;47.130;142.766;2022-12-07T03:02:08;12.57;;;5.00;;
63699;SDS011;49845;47.130;142.766;2022-12-07T03:08:21;19.15;;;9.13;;
63699;SDS011;49845;47.130;142.766;2022-12-07T03:11:34;10.77;;;4.32;;
63699;SDS011;49845;47.130;142.766;2022-12-07T03:14:32;15.82;;;5.68;;
63699;SDS011;49845;47.130;142.766;2022-12-07T03:17:31;10.70;;;5.63;;
63699;SDS011;49845;47.130;142.766;2022-12-07T03:20:46;7.97;;;4.38;;
63699;SDS011;49845;47.130;142.766;2022-12-07T03:23:43;5.60;;;3.67;;
63699;SDS011;49845;47.130;142.766;2022-12-07T03:26:21;9.18;;;3.70;;
63699;SDS011;49845;47.130;142.766;2022-12-07T03:29:19;7.40;;;3.42;;
63699;SDS011;49845;47.130;142.766;2022-12-07T03:32:14;6.00;;;2.92;;
63699;SDS011;49845;47.130;142.766;2022-12-07T03:35:07;7.13;;;3.05;;
63699;SDS011;49845;47.130;142.766;2022-12-07T03:38:15;8.75;;;3.30;;
63699;SDS011;49845;47.130;142.766;2022-12-07T03:41:14;7.43;;;3.50;;
63699;SDS011;49845;47.130;142.766;2022-12-07T03:44:08;9.93;;;4.10;;
63699;SDS011;49845;47.130;142.766;2022-12-07T03:47:11;10.32;;;5.43;;
63699;SDS011;49845;47.130;142.766;2022-12-07T03:50:02;11.35;;;3.88;;
63699;SDS011;49845;47.130;142.766;2022-12-07T03:52:42;11.40;;;4.50;;
63699;SDS011;49845;47.130;142.766;2022-12-07T03:55:47;8.25;;;3.70;;
63699;SDS011;49845;47.130;142.766;2022-12-07T03:58:42;7.68;;;3.78;;
63699;SDS011;49845;47.130;142.766;2022-12-07T04:01:24;9.40;;;4.75;;
63699;SDS011;49845;47.130;142.766;2022-12-07T04:04:06;8.77;;;4.38;;
63699;SDS011;49845;47.130;142.766;2022-12-07T04:06:53;8.50;;;4.60;;
63699;SDS011;49845;47.130;142.766;2022-12-07T04:09:36;5.18;;;2.95;;
63699;SDS011;49845;47.130;142.766;2022-12-07T04:12:41;8.25;;;4.05;;
63699;SDS011;49845;47.130;142.766;2022-12-07T04:15:26;10.45;;;4.70;;
63699;SDS011;49845;47.130;142.766;2022-12-07T04:18:14;6.40;;;3.38;;
63699;SDS011;49845;47.130;142.766;2022-12-07T04:20:52;12.48;;;3.35;;
63699;SDS011;49845;47.130;142.766;2022-12-07T04:23:38;9.43;;;3.55;;
63699;SDS011;49845;47.130;142.766;2022-12-07T04:29:27;10.82;;;4.47;;
63699;SDS011;49845;47.130;142.766;2022-12-07T04:32:15;12.15;;;4.43;;
63699;SDS011;49845;47.130;142.766;2022-12-07T04:35:03;10.75;;;4.85;;
63699;SDS011;49845;47.130;142.766;2022-12-07T04:38:14;7.18;;;3.67;;
63699;SDS011;49845;47.130;142.766;2022-12-07T04:40:58;9.35;;;3.90;;
63699;SDS011;49845;47.130;142.766;2022-12-07T04:43:52;11.27;;;4.20;;
63699;SDS011;49845;47.130;142.766;2022-12-07T04:46:35;8.40;;;3.70;;
63699;SDS011;49845;47.130;142.766;2022-12-07T04:49:25;9.30;;;3.90;;
63699;SDS011;49845;47.130;142.766;2022-12-07T04:52:13;8.93;;;3.92;;
63699;SDS011;49845;47.130;142.766;2022-12-07T04:54:58;10.15;;;4.40;;
63699;SDS011;49845;47.130;142.766;2022-12-07T04:58:17;7.75;;;3.80;;
63699;SDS011;49845;47.130;142.766;2022-12-07T05:01:08;8.55;;;3.75;;
63699;SDS011;49845;47.130;142.766;2022-12-07T05:04:23;11.30;;;3.70;;
63699;SDS011;49845;47.130;142.766;2022-12-07T05:07:03;10.68;;;3.90;;
63699;SDS011;49845;47.130;142.766;2022-12-07T05:09:40;9.45;;;3.47;;
63699;SDS011;49845;47.130;142.766;2022-12-07T05:12:22;8.60;;;4.32;;
63699;SDS011;49845;47.130;142.766;2022-12-07T05:15:05;6.75;;;3.33;;
63699;SDS011;49845;47.130;142.766;2022-12-07T05:17:43;11.23;;;3.72;;
63699;SDS011;49845;47.130;142.766;2022-12-07T05:20:32;9.10;;;4.40;;
63699;SDS011;49845;47.130;142.766;2022-12-07T05:23:19;9.00;;;4.32;;
63699;SDS011;49845;47.130;142.766;2022-12-07T05:26:04;9.07;;;3.80;;
63699;SDS011;49845;47.130;142.766;2022-12-07T05:29:04;9.48;;;4.05;;
63699;SDS011;49845;47.130;142.766;2022-12-07T05:31:45;11.05;;;3.47;;
63699;SDS011;49845;47.130;142.766;2022-12-07T05:34:37;9.13;;;3.88;;
63699;SDS011;49845;47.130;142.766;2022-12-07T05:37:34;7.20;;;4.25;;
63699;SDS011;49845;47.130;142.766;2022-12-07T05:40:27;12.52;;;3.88;;
63699;SDS011;49845;47.130;142.766;2022-12-07T05:43:29;14.23;;;6.38;;
63699;SDS011;49845;47.130;142.766;2022-12-07T05:46:10;11.27;;;5.65;;
63699;SDS011;49845;47.130;142.766;2022-12-07T05:48:54;8.63;;;3.33;;
63699;SDS011;49845;47.130;142.766;2022-12-07T05:51:32;7.38;;;3.88;;
63699;SDS011;49845;47.130;142.766;2022-12-07T05:54:17;11.55;;;3.60;;
63699;SDS011;49845;47.130;142.766;2022-12-07T05:57:06;11.02;;;4.07;;
63699;SDS011;49845;47.130;142.766;2022-12-07T06:00:03;6.30;;;3.35;;
63699;SDS011;49845;47.130;142.766;2022-12-07T06:02:56;8.65;;;4.15;;
63699;SDS011;49845;47.130;142.766;2022-12-07T06:05:51;12.75;;;3.95;;
63699;SDS011;49845;47.130;142.766;2022-12-07T06:08:37;8.90;;;4.10;;
63699;SDS011;49845;47.130;142.766;2022-12-07T06:11:27;7.68;;;3.78;;
63699;SDS011;49845;47.130;142.766;2022-12-07T06:14:35;8.98;;;3.95;;
63699;SDS011;49845;47.130;142.766;2022-12-07T06:17:13;6.22;;;3.17;;
63699;SDS011;49845;47.130;142.766;2022-12-07T06:20:11;10.35;;;4.20;;
63699;SDS011;49845;47.130;142.766;2022-12-07T06:22:53;6.68;;;4.00;;
63699;SDS011;49845;47.130;142.766;2022-12-07T06:25:31;7.68;;;4.00;;
63699;SDS011;49845;47.130;142.766;2022-12-07T06:28:27;12.45;;;4.75;;
63699;SDS011;49845;47.130;142.766;2022-12-07T06:31:05;10.43;;;4.10;;
63699;SDS011;49845;47.130;142.766;2022-12-07T06:33:56;16.60;;;4.45;;
63699;SDS011;49845;47.130;142.766;2022-12-07T06:36:36;9.95;;;4.68;;
63699;SDS011;49845;47.130;142.766;2022-12-07T06:39:27;9.77;;;5.25;;
63699;SDS011;49845;47.130;142.766;2022-12-07T06:42:11;13.55;;;6.25;;
63699;SDS011;49845;47.130;142.766;2022-12-07T06:44:51;13.10;;;5.38;;
63699;SDS011;49845;47.130;142.766;2022-12-07T06:47:51;13.15;;;5.60;;
63699;SDS011;49845;47.130;142.766;2022-12-07T06:50:45;10.73;;;4.60;;
63699;SDS011;49845;47.130;142.766;2022-12-07T06:53:49;9.95;;;4.88;;
63699;SDS011;49845;47.130;142.766;2022-12-07T06:56:34;11.57;;;5.30;;
63699;SDS011;49845;47.130;142.766;2022-12-07T06:59:20;10.98;;;4.90;;
63699;SDS011;49845;47.130;142.766;2022-12-07T07:02:10;10.23;;;5.10;;
63699;SDS011;49845;47.130;142.766;2022-12-07T07:04:55;9.20;;;4.43;;
63699;SDS011;49845;47.130;142.766;2022-12-07T07:07:43;9.07;;;3.90;;
63699;SDS011;49845;47.130;142.766;2022-12-07T07:10:50;16.17;;;8.25;;
63699;SDS011;49845;47.130;142.766;2022-12-07T07:13:38;24.10;;;10.43;;
63699;SDS011;49845;47.130;142.766;2022-12-07T07:16:16;24.77;;;11.25;;
63699;SDS011;49845;47.130;142.766;2022-12-07T07:22:32;84.55;;;25.30;;
63699;SDS011;49845;47.130;142.766;2022-12-07T07:25:09;107.38;;;34.40;;
63699;SDS011;49845;47.130;142.766;2022-12-07T07:27:45;117.43;;;39.28;;
63699;SDS011;49845;47.130;142.766;2022-12-07T07:30:27;80.60;;;30.15;;
63699;SDS011;49845;47.130;142.766;2022-12-07T07:33:12;59.17;;;22.63;;
63699;SDS011;49845;47.130;142.766;2022-12-07T07:35:51;27.27;;;13.23;;
63699;SDS011;49845;47.130;142.766;2022-12-07T07:38:33;18.33;;;9.02;;
63699;SDS011;49845;47.130;142.766;2022-12-07T07:41:23;22.50;;;9.52;;
63699;SDS011;49845;47.130;142.766;2022-12-07T07:44:14;48.33;;;19.60;;
63699;SDS011;49845;47.130;142.766;2022-12-07T07:47:16;30.77;;;14.88;;
63699;SDS011;49845;47.130;142.766;2022-12-07T07:50:08;21.48;;;8.98;;
63699;SDS011;49845;47.130;142.766;2022-12-07T07:53:03;22.17;;;11.13;;
63699;SDS011;49845;47.130;142.766;2022-12-07T07:56:00;36.20;;;17.60;;
63699;SDS011;49845;47.130;142.766;2022-12-07T07:58:45;39.13;;;23.27;;
63699;SDS011;49845;47.130;142.766;2022-12-07T08:01:44;25.15;;;14.98;;
63699;SDS011;49845;47.130;142.766;2022-12-07T08:04:34;13.82;;;8.27;;
63699;SDS011;49845;47.130;142.766;2022-12-07T08:07:20;36.00;;;15.82;;
63699;SDS011;49845;47.130;142.766;2022-12-07T08:10:09;20.88;;;9.23;;
63699;SDS011;49845;47.130;142.766;2022-12-07T08:13:11;9.48;;;5.32;;
63699;SDS011;49845;47.130;142.766;2022-12-07T08:16:03;10.35;;;4.95;;
63699;SDS011;49845;47.130;142.766;2022-12-07T08:18:43;28.23;;;14.45;;
63699;SDS011;49845;47.130;142.766;2022-12-07T08:21:29;30.77;;;14.43;;
63699;SDS011;49845;47.130;142.766;2022-12-07T08:24:13;17.23;;;8.48;;
63699;SDS011;49845;47.130;142.766;2022-12-07T08:26:54;12.60;;;6.75;;
63699;SDS011;49845;47.130;142.766;2022-12-07T08:29:47;10.60;;;6.30;;
63699;SDS011;49845;47.130;142.766;2022-12-07T08:32:26;9.10;;;5.15;;
63699;SDS011;49845;47.130;142.766;2022-12-07T08:35:11;8.60;;;4.55;;
63699;SDS011;49845;47.130;142.766;2022-12-07T08:38:11;7.60;;;4.30;;
63699;SDS011;49845;47.130;142.766;2022-12-07T08:41:35;7.32;;;4.25;;
63699;SDS011;49845;47.130;142.766;2022-12-07T08:44:31;9.63;;;5.07;;
63699;SDS011;49845;47.130;142.766;2022-12-07T08:47:25;9.73;;;6.60;;
63699;SDS011;49845;47.130;142.766;2022-12-07T08:50:16;10.73;;;7.35;;
63699;SDS011;49845;47.130;142.766;2022-12-07T08:53:05;11.63;;;6.90;;
63699;SDS011;49845;47.130;142.766;2022-12-07T08:56:04;7.78;;;4.65;;
63699;SDS011;49845;47.130;142.766;2022-12-07T08:58:39;10.07;;;3.70;;
63699;SDS011;49845;47.130;142.766;2022-12-07T09:01:50;20.10;;;9.05;;
63699;SDS011;49845;47.130;142.766;2022-12-07T09:04:56;13.85;;;5.90;;
63699;SDS011;49845;47.130;142.766;2022-12-07T09:07:57;12.45;;;6.03;;
63699;SDS011;49845;47.130;142.766;2022-12-07T09:10:41;9.40;;;5.47;;
63699;SDS011;49845;47.130;142.766;2022-12-07T09:13:21;11.30;;;4.13;;
63699;SDS011;49845;47.130;142.766;2022-12-07T09:16:03;8.23;;;4.35;;
63699;SDS011;49845;47.130;142.766;2022-12-07T09:18:58;6.97;;;3.88;;
63699;SDS011;49845;47.130;142.766;2022-12-07T09:21:56;6.97;;;3.80;;
63699;SDS011;49845;47.130;142.766;2022-12-07T09:24:42;6.32;;;3.53;;
63699;SDS011;49845;47.130;142.766;2022-12-07T09:27:28;5.95;;;3.67;;
63699;SDS011;49845;47.130;142.766;2022-12-07T09:30:07;14.77;;;7.65;;
63699;SDS011;49845;47.130;142.766;2022-12-07T09:33:03;16.13;;;9.02;;
63699;SDS011;49845;47.130;142.766;2022-12-07T09:35:52;11.23;;;6.10;;
63699;SDS011;49845;47.130;142.766;2022-12-07T09:38:44;14.85;;;9.40;;
63699;SDS011;49845;47.130;142.766;2022-12-07T09:41:30;32.90;;;13.93;;
63699;SDS011;49845;47.130;142.766;2022-12-07T09:44:17;47.03;;;20.42;;
63699;SDS011;49845;47.130;142.766;2022-12-07T09:47:18;49.30;;;21.52;;
63699;SDS011;49845;47.130;142.766;2022-12-07T09:50:04;34.35;;;14.10;;
63699;SDS011;49845;47.130;142.766;2022-12-07T09:52:43;32.42;;;13.02;;
63699;SDS011;49845;47.130;142.766;2022-12-07T09:55:33;31.88;;;12.75;;
63699;SDS011;49845;47.130;142.766;2022-12-07T09:58:40;31.80;;;13.20;;
63699;SDS011;49845;47.130;142.766;2022-12-07T10:01:16;30.10;;;12.50;;
63699;SDS011;49845;47.130;142.766;2022-12-07T10:04:00;29.52;;;11.85;;
63699;SDS011;49845;47.130;142.766;2022-12-07T10:06:58;31.88;;;12.32;;
63699;SDS011;49845;47.130;142.766;2022-12-07T10:09:47;27.42;;;12.38;;
63699;SDS011;49845;47.130;142.766;2022-12-07T10:15:53;25.85;;;10.25;;
63699;SDS011;49845;47.130;142.766;2022-12-07T10:18:41;24.67;;;9.63;;
63699;SDS011;49845;47.130;142.766;2022-12-07T10:25:07;28.63;;;12.88;;
63699;SDS011;49845;47.130;142.766;2022-12-07T10:28:09;25.77;;;10.38;;
63699;SDS011;49845;47.130;142.766;2022-12-07T10:30:59;28.75;;;10.93;;
63699;SDS011;49845;47.130;142.766;2022-12-07T10:33:51;23.15;;;9.40;;
63699;SDS011;49845;47.130;142.766;2022-12-07T10:36:46;23.60;;;9.18;;
63699;SDS011;49845;47.130;142.766;2022-12-07T10:39:29;18.20;;;7.65;;
63699;SDS011;49845;47.130;142.766;2022-12-07T10:42:28;17.67;;;7.60;;
63699;SDS011;49845;47.130;142.766;2022-12-07T10:45:17;21.58;;;7.88;;
63699;SDS011;49845;47.130;142.766;2022-12-07T10:48:37;17.95;;;9.00;;
63699;SDS011;49845;47.130;142.766;2022-12-07T10:52:04;22.67;;;7.65;;
63699;SDS011;49845;47.130;142.766;2022-12-07T10:55:00;26.33;;;8.23;;
63699;SDS011;49845;47.130;142.766;2022-12-07T10:58:06;22.20;;;9.02;;
63699;SDS011;49845;47.130;142.766;2022-12-07T11:01:31;22.35;;;9.00;;
63699;SDS011;49845;47.130;142.766;2022-12-07T11:04:24;16.23;;;7.38;;
63699;SDS011;49845;47.130;142.766;2022-12-07T11:07:18;19.58;;;9.13;;
63699;SDS011;49845;47.130;142.766;2022-12-07T11:13:11;26.42;;;11.50;;
63699;SDS011;49845;47.130;142.766;2022-12-07T11:16:38;34.47;;;13.85;;
63699;SDS011;49845;47.130;142.766;2022-12-07T11:19:39;22.95;;;12.23;;
63699;SDS011;49845;47.130;142.766;2022-12-07T11:22:36;30.58;;;11.68;;
63699;SDS011;49845;47.130;142.766;2022-12-07T11:25:31;32.17;;;12.88;;
63699;SDS011;49845;47.130;142.766;2022-12-07T11:28:30;29.42;;;13.30;;
63699;SDS011;49845;47.130;142.766;2022-12-07T11:31:36;28.33;;;12.00;;
63699;SDS011;49845;47.130;142.766;2022-12-07T11:34:51;28.65;;;11.05;;
63699;SDS011;49845;47.130;142.766;2022-12-07T11:37:54;34.85;;;11.35;;
63699;SDS011;49845;47.130;142.766;2022-12-07T11:41:02;36.45;;;11.95;;
63699;SDS011;49845;47.130;142.766;2022-12-07T11:44:22;30.27;;;12.35;;
63699;SDS011;49845;47.130;142.766;2022-12-07T11:47:13;26.17;;;8.80;;
63699;SDS011;49845;47.130;142.766;2022-12-07T11:50:14;24.65;;;10.75;;
63699;SDS011;49845;47.130;142.766;2022-12-07T11:56:19;18.90;;;9.27;;
63699;SDS011;49845;47.130;142.766;2022-12-07T11:59:29;18.95;;;7.93;;
63699;SDS011;49845;47.130;142.766;2022-12-07T12:02:32;24.48;;;9.43;;
63699;SDS011;49845;47.130;142.766;2022-12-07T12:05:25;17.95;;;8.18;;
63699;SDS011;49845;47.130;142.766;2022-12-07T12:08:18;20.95;;;8.82;;
63699;SDS011;49845;47.130;142.766;2022-12-07T12:11:47;34.13;;;12.65;;
63699;SDS011;49845;47.130;142.766;2022-12-07T12:15:00;31.98;;;11.35;;
63699;SDS011;49845;47.130;142.766;2022-12-07T12:21:34;35.25;;;13.20;;
63699;SDS011;49845;47.130;142.766;2022-12-07T12:24:30;32.25;;;13.07;;
63699;SDS011;49845;47.130;142.766;2022-12-07T12:27:21;36.03;;;13.32;;
63699;SDS011;49845;47.130;142.766;2022-12-07T12:30:32;32.55;;;12.48;;
63699;SDS011;49845;47.130;142.766;2022-12-07T12:33:27;33.70;;;12.88;;
63699;SDS011;49845;47.130;142.766;2022-12-07T12:36:48;34.88;;;12.88;;
63699;SDS011;49845;47.130;142.766;2022-12-07T12:39:36;47.95;;;18.38;;
63699;SDS011;49845;47.130;142.766;2022-12-07T12:42:43;60.35;;;20.98;;
63699;SDS011;49845;47.130;142.766;2022-12-07T12:58:42;87.93;;;36.88;;
63699;SDS011;49845;47.130;142.766;2022-12-07T13:04:24;74.45;;;29.38;;
63699;SDS011;49845;47.130;142.766;2022-12-07T13:10:54;77.95;;;31.80;;
63699;SDS011;49845;47.130;142.766;2022-12-07T13:24:28;93.13;;;32.97;;
63699;SDS011;49845;47.130;142.766;2022-12-07T13:27:43;91.60;;;34.13;;
63699;SDS011;49845;47.130;142.766;2022-12-07T13:30:30;78.40;;;31.23;;
63699;SDS011;49845;47.130;142.766;2022-12-07T13:33:12;88.90;;;30.73;;
63699;SDS011;49845;47.130;142.766;2022-12-07T13:36:24;85.30;;;30.35;;
63699;SDS011;49845;47.130;142.766;2022-12-07T13:39:27;84.10;;;31.92;;
63699;SDS011;49845;47.130;142.766;2022-12-07T13:42:29;82.32;;;31.80;;
63699;SDS011;49845;47.130;142.766;2022-12-07T13:45:31;83.95;;;30.17;;
63699;SDS011;49845;47.130;142.766;2022-12-07T13:48:29;73.78;;;29.48;;
63699;SDS011;49845;47.130;142.766;2022-12-07T13:51:21;79.22;;;31.27;;
63699;SDS011;49845;47.130;142.766;2022-12-07T13:54:13;93.85;;;35.17;;
63699;SDS011;49845;47.130;142.766;2022-12-07T13:57:21;58.72;;;22.92;;
63699;SDS011;49845;47.130;142.766;2022-12-07T14:00:04;66.78;;;27.30;;
63699;SDS011;49845;47.130;142.766;2022-12-07T14:09:33;58.53;;;21.70;;
63699;SDS011;49845;47.130;142.766;2022-12-07T14:12:35;56.65;;;22.45;;
63699;SDS011;49845;47.130;142.766;2022-12-07T14:15:23;59.88;;;22.58;;
63699;SDS011;49845;47.130;142.766;2022-12-07T14:18:24;72.30;;;25.92;;
63699;SDS011;49845;47.130;142.766;2022-12-07T14:21:35;50.67;;;22.08;;
63699;SDS011;49845;47.130;142.766;2022-12-07T14:24:22;50.65;;;21.02;;
63699;SDS011;49845;47.130;142.766;2022-12-07T14:27:16;61.42;;;23.48;;
63699;SDS011;49845;47.130;142.766;2022-12-07T14:30:15;60.75;;;22.40;;
63699;SDS011;49845;47.130;142.766;2022-12-07T14:33:05;77.22;;;27.48;;
63699;SDS011;49845;47.130;142.766;2022-12-07T14:35:48;89.57;;;33.70;;
63699;SDS011;49845;47.130;142.766;2022-12-07T14:41:58;95.50;;;35.78;;
63699;SDS011;49845;47.130;142.766;2022-12-07T14:44:51;80.63;;;31.25;;
63699;SDS011;49845;47.130;142.766;2022-12-07T14:47:36;75.07;;;28.20;;
63699;SDS011;49845;47.130;142.766;2022-12-07T14:50:50;84.80;;;32.45;;
63699;SDS011;49845;47.130;142.766;2022-12-07T14:54:11;100.72;;;36.83;;
63699;SDS011;49845;47.130;142.766;2022-12-07T14:56:56;108.40;;;36.53;;
63699;SDS011;49845;47.130;142.766;2022-12-07T14:59:44;85.63;;;33.85;;
63699;SDS011;49845;47.130;142.766;2022-12-07T15:02:33;75.55;;;28.42;;
63699;SDS011;49845;47.130;142.766;2022-12-07T15:05:20;64.65;;;23.75;;
63699;SDS011;49845;47.130;142.766;2022-12-07T15:08:08;62.42;;;22.50;;
63699;SDS011;49845;47.130;142.766;2022-12-07T15:11:05;53.88;;;19.08;;
63699;SDS011;49845;47.130;142.766;2022-12-07T15:13:58;44.72;;;17.38;;
63699;SDS011;49845;47.130;142.766;2022-12-07T15:16:54;48.35;;;19.70;;
63699;SDS011;49845;47.130;142.766;2022-12-07T15:19:38;49.67;;;20.08;;
63699;SDS011;49845;47.130;142.766;2022-12-07T15:22:33;46.40;;;18.13;;
63699;SDS011;49845;47.130;142.766;2022-12-07T15:28:11;26.92;;;11.68;;
63699;SDS011;49845;47.130;142.766;2022-12-07T15:30:52;30.35;;;10.27;;
63699;SDS011;49845;47.130;142.766;2022-12-07T15:33:50;20.85;;;8.98;;
63699;SDS011;49845;47.130;142.766;2022-12-07T15:36:30;23.35;;;10.70;;
63699;SDS011;49845;47.130;142.766;2022-12-07T15:39:10;21.13;;;9.80;;
63699;SDS011;49845;47.130;142.766;2022-12-07T15:42:12;25.30;;;9.77;;
63699;SDS011;49845;47.130;142.766;2022-12-07T15:44:56;24.50;;;10.38;;
63699;SDS011;49845;47.130;142.766;2022-12-07T15:47:48;19.17;;;8.90;;
63699;SDS011;49845;47.130;142.766;2022-12-07T15:50:52;28.02;;;11.60;;
63699;SDS011;49845;47.130;142.766;2022-12-07T15:53:39;31.95;;;13.60;;
63699;SDS011;49845;47.130;142.766;2022-12-07T15:56:15;40.35;;;16.83;;
63699;SDS011;49845;47.130;142.766;2022-12-07T15:58:56;37.38;;;17.50;;
63699;SDS011;49845;47.130;142.766;2022-12-07T16:08:01;27.08;;;12.55;;
63699;SDS011;49845;47.130;142.766;2022-12-07T16:11:04;15.07;;;6.60;;
63699;SDS011;49845;47.130;142.766;2022-12-07T16:14:13;19.88;;;9.02;;
63699;SDS011;49845;47.130;142.766;2022-12-07T16:16:50;18.52;;;8.05;;
63699;SDS011;49845;47.130;142.766;2022-12-07T16:19:28;17.60;;;7.18;;
63699;SDS011;49845;47.130;142.766;2022-12-07T16:22:24;16.60;;;7.22;;
63699;SDS011;49845;47.130;142.766;2022-12-07T16:25:16;23.15;;;9.95;;
63699;SDS011;49845;47.130;142.766;2022-12-07T16:28:08;23.88;;;9.68;;
63699;SDS011;49845;47.130;142.766;2022-12-07T16:30:47;29.08;;;11.25;;
63699;SDS011;49845;47.130;142.766;2022-12-07T16:33:54;57.60;;;18.27;;
63699;SDS011;49845;47.130;142.766;2022-12-07T16:36:56;48.53;;;15.75;;
63699;SDS011;49845;47.130;142.766;2022-12-07T16:39:46;44.47;;;15.98;;
63699;SDS011;49845;47.130;142.766;2022-12-07T16:42:37;31.83;;;12.77;;
63699;SDS011;49845;47.130;142.766;2022-12-07T16:45:24;25.95;;;11.20;;
63699;SDS011;49845;47.130;142.766;2022-12-07T16:48:27;35.85;;;12.77;;
63699;SDS011;49845;47.130;142.766;2022-12-07T16:51:20;36.95;;;14.77;;
63699;SDS011;49845;47.130;142.766;2022-12-07T16:54:08;34.42;;;12.73;;
63699;SDS011;49845;47.130;142.766;2022-12-07T16:56:46;40.97;;;13.77;;
63699;SDS011;49845;47.130;142.766;2022-12-07T16:59:53;32.00;;;12.32;;
63699;SDS011;49845;47.130;142.766;2022-12-07T17:02:44;33.70;;;12.35;;
63699;SDS011;49845;47.130;142.766;2022-12-07T17:05:32;42.30;;;14.48;;
63699;SDS011;49845;47.130;142.766;2022-12-07T17:08:15;32.75;;;13.52;;
63699;SDS011;49845;47.130;142.766;2022-12-07T17:11:02;35.20;;;13.20;;
63699;SDS011;49845;47.130;142.766;2022-12-07T17:14:07;33.38;;;12.55;;
63699;SDS011;49845;47.130;142.766;2022-12-07T17:17:08;28.70;;;10.95;;
63699;SDS011;49845;47.130;142.766;2022-12-07T17:20:11;24.27;;;10.68;;
63699;SDS011;49845;47.130;142.766;2022-12-07T17:23:04;30.40;;;12.52;;
63699;SDS011;49845;47.130;142.766;2022-12-07T17:25:52;23.00;;;9.15;;
63699;SDS011;49845;47.130;142.766;2022-12-07T17:28:30;27.42;;;10.40;;
63699;SDS011;49845;47.130;142.766;2022-12-07T17:31:18;26.73;;;10.95;;
63699;SDS011;49845;47.130;142.766;2022-12-07T17:34:04;25.23;;;10.50;;
63699;SDS011;49845;47.130;142.766;2022-12-07T17:36:55;23.90;;;9.85;;
63699;SDS011;49845;47.130;142.766;2022-12-07T17:39:34;27.02;;;10.73;;
63699;SDS011;49845;47.130;142.766;2022-12-07T17:42:40;24.65;;;9.50;;
63699;SDS011;49845;47.130;142.766;2022-12-07T17:45:26;22.42;;;7.95;;
63699;SDS011;49845;47.130;142.766;2022-12-07T17:48:28;17.10;;;6.97;;
63699;SDS011;49845;47.130;142.766;2022-12-07T17:51:15;16.33;;;6.38;;
63699;SDS011;49845;47.130;142.766;2022-12-07T17:54:08;11.93;;;5.68;;
63699;SDS011;49845;47.130;142.766;2022-12-07T17:57:09;15.63;;;6.57;;